Acton, MA

6:27 PM EDT on August 29, 2014 (GMT -0400)
Long Lake | Change Station
CLOSE
Current Station
Personal Weather Station
Location: Littleton, MA
Elevation: 272 ft
Nearby Weather Stations

Elev 272 ft 42.53 °N, 71.47 °W | Updated 8 seconds ago

Partly Cloudy
Partly Cloudy
70.9 °F
Feels Like 71 °F
N
6.0
Wind Variable Wind from SSW

Today
High -- | Low -- °F
--% Chance of Precip.
Yesterday
High -- | Low -- °F
Precip. -- in
6:07 AM 7:24 PM
Waxing Crescent, 17% visible
Pressure 30.24 in
Visibility 10.0 miles
Clouds Few 5000 ft
Heat Index 71 °F
Dew Point 65 °F
Humidity 82%
Rainfall -999.00 in
Snow Depth Not available.
UV 1 out of 12
Pollen 8.80 out of 12
Air Quality Not available.
Flu Activity Not available.
METAR KBED 292156Z 11008KT 10SM FEW050 19/13 A3020 RMK AO2 SLP239 T01940128

More Conditions Fewer Conditions

Pressure 30.24 in
Visibility 10.0 miles
Clouds Few 5000 ft
Heat Index 71 °F
Dew Point 65 °F
Humidity 82%
Rainfall -999.00 in
Snow Depth Not available.
UV 1 out of 12
Pollen 8.80 out of 12
Air Quality Not available.
Flu Activity Not available.
METAR KBED 292156Z 11008KT 10SM FEW050 19/13 A3020 RMK AO2 SLP239 T01940128

More Conditions Fewer Conditions

10-Day Weather Forecast

Almanac

Astronomy

Aug. 29, 2014 Rise Set
Actual Time 6:07 AM EDT 7:24 PM EDT
Civil Twilight 5:38 AM EDT 7:54 PM EDT
Nautical Twilight 5:03 AM EDT 8:29 PM EDT
Astronomical Twilight 4:26 AM EDT 9:05 PM EDT
Moon 9:59 AM EDT 9:14 PM EDT
Length of Visible Light 14h 15m
Length of Day
13h 17m
Tomorrow will be 2m 45s shorter.
Waxing Crescent, 17% of the Moon is Illuminated
Today
Waxing Crescent
Sep 2
First Quarter
Sep 8
Full
Sep 15
Last Quarter
Sep 24
New

Today's Extremes

State Highs State Lows

Community

WunderPhotos

Upload Photos

1,748,360 photos uploaded!

Nearby

Air Quality

  Air Quality AQ Index Pollutant
Friday Good
PM2.5
Friday Good
OZONE
Saturday Good
PM2.5
Saturday Good
OZONE

Snow Depth

Station Depth Elevation
No new snow has been reported.

Earthquake Activity

City Distance Mag. Time & Date
No recent earthquake activity has been reported nearby.
Minimum magnitude displayed is 2.5.

Coastal Water Temperatures

Place Temperature
Boston, MA 69.1 °F
Providence, RI 71.1 °F
Fall River, MA 73.9 °F
Conimicut Light, RI 71.1 °F

Nearby Weather Stations